Time;durP1;ratioP1;P1;durP2;ratioP2;P2;SDS_P1;SDS_P2;PMS_P1;PMS_P2;Temp;Humidity;BMP_temperature;BMP_pressure;BME280_temperature;BME280_humidity;BME280_pressure;Samples;Min_cycle;Max_cycle;Signal;HPM_P1;HPM_P2
2022/02/03 07:02:41;;;;;;;228.00;8.18;;;;;;;;;;4866420;29;20092;-82
2022/02/03 07:05:08;;;;;;;224.48;8.05;;;;;;;;;;4871967;29;20049;-82
2022/02/03 07:07:41;;;;;;;307.10;9.63;;;;;;;;;;4879517;29;20056;-82
2022/02/03 07:10:08;;;;;;;273.17;8.40;;;;;;;;;;4881413;29;20055;-82
2022/02/03 07:12:35;;;;;;;237.98;7.80;;;;;;;;;;4879535;29;20056;-82
2022/02/03 07:15:05;;;;;;;277.17;8.90;;;;;;;;;;4879895;29;20199;-82
2022/02/03 07:17:33;;;;;;;209.27;6.45;;;;;;;;;;4875171;29;20057;-81
2022/02/03 07:20:05;;;;;;;233.07;8.05;;;;;;;;;;4879905;29;20479;-82
2022/02/03 07:22:32;;;;;;;168.73;6.25;;;;;;;;;;4880548;29;20051;-82
2022/02/03 07:24:59;;;;;;;224.32;7.53;;;;;;;;;;4877609;29;20087;-82
2022/02/03 07:27:26;;;;;;;240.60;8.80;;;;;;;;;;4876627;29;20104;-82
2022/02/03 07:29:54;;;;;;;251.77;8.20;;;;;;;;;;4871928;29;20042;-83
2022/02/03 07:32:22;;;;;;;293.25;10.63;;;;;;;;;;4879148;29;20048;-82
2022/02/03 07:34:53;;;;;;;167.70;7.25;;;;;;;;;;4875129;29;20604;-85
2022/02/03 07:37:22;;;;;;;113.18;6.22;;;;;;;;;;4873623;29;20049;-82
2022/02/03 07:39:49;;;;;;;115.93;6.65;;;;;;;;;;4881174;29;20041;-84
2022/02/03 07:42:16;;;;;;;30.05;5.35;;;;;;;;;;4881528;29;20121;-82
2022/02/03 07:44:42;;;;;;;19.17;4.93;;;;;;;;;;4876526;29;20416;-83
2022/02/03 07:47:13;;;;;;;22.48;4.88;;;;;;;;;;4878376;29;20072;-85
2022/02/03 07:49:39;;;;;;;66.70;6.60;;;;;;;;;;4886961;29;20470;-84
2022/02/03 07:52:07;;;;;;;21.13;5.60;;;;;;;;;;4877259;29;20542;-84
2022/02/03 07:54:33;;;;;;;79.30;9.10;;;;;;;;;;4890455;29;20068;-85
2022/02/03 07:57:02;;;;;;;64.78;7.57;;;;;;;;;;4882701;29;20574;-81
2022/02/03 07:59:29;;;;;;;43.40;7.45;;;;;;;;;;4876778;29;20581;-81
2022/02/03 08:01:55;;;;;;;45.33;7.70;;;;;;;;;;4879721;29;20406;-81
2022/02/03 08:04:27;;;;;;;30.27;7.28;;;;;;;;;;4879090;29;20041;-81
2022/02/03 08:06:54;;;;;;;31.48;7.25;;;;;;;;;;4892415;29;20137;-82
2022/02/03 08:11:55;;;;;;;23.42;7.22;;;;;;;;;;4879820;29;20064;-83
2022/02/03 08:14:39;;;;;;;18.85;7.45;;;;;;;;;;4879220;29;20053;-82
2022/02/03 08:17:10;;;;;;;16.15;6.85;;;;;;;;;;4878890;29;20065;-82
2022/02/03 08:20:02;;;;;;;21.83;6.55;;;;;;;;;;4880706;29;20105;-83
2022/02/03 08:22:48;;;;;;;19.35;6.90;;;;;;;;;;4873218;29;20451;-84
2022/02/03 08:25:20;;;;;;;18.38;6.30;;;;;;;;;;4880509;29;20574;-83
2022/02/03 08:30:38;;;;;;;20.38;6.03;;;;;;;;;;4878135;29;20057;-82
2022/02/03 08:33:05;;;;;;;27.98;6.05;;;;;;;;;;4877741;29;20613;-84
2022/02/03 08:43:20;;;;;;;16.90;6.38;;;;;;;;;;4889070;29;20102;-82
2022/02/03 08:45:47;;;;;;;15.32;5.35;;;;;;;;;;4865774;29;20048;-82
2022/02/03 08:48:15;;;;;;;14.25;4.90;;;;;;;;;;4877717;29;20071;-83
2022/02/03 08:50:42;;;;;;;12.73;5.18;;;;;;;;;;4879793;29;20117;-83
2022/02/03 08:53:28;;;;;;;15.20;5.85;;;;;;;;;;4878260;29;20422;-82
2022/02/03 09:58:23;;;;;;;9.90;8.85;;;;;;;;;;4832672;29;20519;-83
2022/02/03 10:06:23;;;;;;;4.68;4.20;;;;;;;;;;4876205;29;20064;-82
2022/02/03 10:08:53;;;;;;;5.32;4.18;;;;;;;;;;4884920;29;20127;-83
2022/02/03 10:11:25;;;;;;;5.55;3.03;;;;;;;;;;4879456;29;20473;-81
2022/02/03 10:13:54;;;;;;;2.75;1.25;;;;;;;;;;4877062;29;20073;-82
2022/02/03 10:16:25;;;;;;;2.05;1.20;;;;;;;;;;4876160;29;20049;-82
2022/02/03 10:19:17;;;;;;;1.38;0.70;;;;;;;;;;4893161;29;20055;-83
2022/02/03 10:21:49;;;;;;;0.40;0.20;;;;;;;;;;4867390;29;20036;-83
2022/02/03 10:24:18;;;;;;;0.77;0.20;;;;;;;;;;4874231;29;20053;-80
2022/02/03 10:26:50;;;;;;;1.65;0.30;;;;;;;;;;4876259;29;20053;-83
2022/02/03 10:29:25;;;;;;;1.13;0.30;;;;;;;;;;4873892;29;20057;-83
2022/02/03 10:31:52;;;;;;;0.43;0.30;;;;;;;;;;4871048;29;20061;-82
2022/02/03 10:34:25;;;;;;;0.25;0.20;;;;;;;;;;4859649;29;20053;-82
2022/02/03 10:37:24;;;;;;;0.38;0.10;;;;;;;;;;4871426;29;20122;-82
2022/02/03 10:43:07;;;;;;;0.40;0.40;;;;;;;;;;4870306;29;20568;-84
2022/02/03 10:51:02;;;;;;;0.20;0.20;;;;;;;;;;4872305;29;20048;-83
2022/02/03 10:53:45;;;;;;;0.20;0.20;;;;;;;;;;4871424;29;20132;-83
2022/02/03 10:56:24;;;;;;;1.00;0.73;;;;;;;;;;4871403;29;20053;-82
2022/02/03 11:01:44;;;;;;;0.50;0.45;;;;;;;;;;4872298;29;20049;-82
2022/02/03 11:07:35;;;;;;;1.60;1.20;;;;;;;;;;4870136;29;20501;-81
2022/02/03 11:09:59;;;;;;;2.38;1.33;;;;;;;;;;4867973;29;20132;-82
2022/02/03 11:12:48;;;;;;;2.30;1.65;;;;;;;;;;4872587;29;20045;-84
2022/02/03 11:15:15;;;;;;;2.38;2.00;;;;;;;;;;4871987;29;20052;-81
2022/02/03 11:17:46;;;;;;;3.97;1.67;;;;;;;;;;4871760;29;20109;-82
2022/02/03 11:20:16;;;;;;;3.25;1.38;;;;;;;;;;4870910;29;20112;-82
2022/02/03 11:23:08;;;;;;;1.85;1.10;;;;;;;;;;4869449;29;20060;-81
2022/02/03 11:25:57;;;;;;;1.75;0.80;;;;;;;;;;4871643;29;20056;-83
2022/02/03 12:02:06;;;;;;;1.35;0.85;;;;;;;;;;4869108;29;20060;-85
2022/02/03 12:21:40;;;;;;;3.45;2.00;;;;;;;;;;4877713;29;20487;-87
2022/02/03 12:29:35;;;;;;;0.90;0.80;;;;;;;;;;4877626;29;20574;-83
2022/02/03 12:40:13;;;;;;;5.20;0.70;;;;;;;;;;4874294;29;20105;-86
2022/02/03 12:42:52;;;;;;;0.80;0.80;;;;;;;;;;4873032;29;20048;-83
2022/02/03 12:45:28;;;;;;;1.73;0.50;;;;;;;;;;4877466;29;20188;-87
2022/02/03 12:48:03;;;;;;;1.73;0.55;;;;;;;;;;4876484;29;20045;-88
2022/02/03 12:50:33;;;;;;;1.80;1.08;;;;;;;;;;4892493;29;20052;-89
2022/02/03 12:53:02;;;;;;;1.10;0.50;;;;;;;;;;4891443;29;20045;-84
2022/02/03 12:55:34;;;;;;;1.20;0.40;;;;;;;;;;4869057;29;20068;-86
2022/02/03 12:58:05;;;;;;;1.50;0.50;;;;;;;;;;4879420;29;20044;-86
2022/02/03 13:00:42;;;;;;;0.77;0.50;;;;;;;;;;4875955;29;20044;-85
2022/02/03 13:03:28;;;;;;;0.40;0.30;;;;;;;;;;4868423;29;20413;-84
2022/02/03 13:06:02;;;;;;;0.60;0.40;;;;;;;;;;4882928;29;20049;-85
2022/02/03 13:08:46;;;;;;;2.88;1.15;;;;;;;;;;4877227;29;20396;-83
2022/02/03 13:11:25;;;;;;;2.20;0.85;;;;;;;;;;4873882;29;20484;-85
2022/02/03 13:14:13;;;;;;;2.10;1.02;;;;;;;;;;4877653;29;20055;-84
2022/02/03 13:19:56;;;;;;;1.05;0.93;;;;;;;;;;4871218;29;20109;-84
2022/02/03 13:22:48;;;;;;;1.27;0.60;;;;;;;;;;4876551;29;20108;-84
2022/02/03 13:33:26;;;;;;;1.70;0.40;;;;;;;;;;4865322;29;20049;-83
2022/02/03 13:36:06;;;;;;;3.22;0.40;;;;;;;;;;4870139;29;20093;-84
2022/02/03 13:38:55;;;;;;;0.85;0.32;;;;;;;;;;4884107;29;20060;-86
2022/02/03 13:41:27;;;;;;;0.85;0.40;;;;;;;;;;4875100;29;20052;-86
2022/02/03 13:43:53;;;;;;;1.42;0.45;;;;;;;;;;4876903;29;20053;-84
2022/02/03 13:46:30;;;;;;;0.65;0.35;;;;;;;;;;4876924;29;20132;-84
2022/02/03 13:48:57;;;;;;;1.60;0.25;;;;;;;;;;4874640;29;20104;-83
2022/02/03 13:51:26;;;;;;;1.95;0.40;;;;;;;;;;4868791;29;20056;-84
2022/02/03 13:54:09;;;;;;;4.03;0.82;;;;;;;;;;4875557;29;20128;-85
2022/02/03 14:21:26;;;;;;;1.77;0.30;;;;;;;;;;4876837;29;20041;-82
2022/02/03 14:29:22;;;;;;;2.10;0.40;;;;;;;;;;4871675;29;20096;-89
2022/02/03 14:31:59;;;;;;;2.60;0.57;;;;;;;;;;4871738;29;20044;-85
2022/02/03 14:34:32;;;;;;;0.57;0.40;;;;;;;;;;4874856;29;20060;-87
2022/02/03 14:37:13;;;;;;;1.35;0.30;;;;;;;;;;4867612;29;20152;-86
2022/02/03 14:42:07;;;;;;;4.97;0.80;;;;;;;;;;4875833;29;20049;-87
2022/02/03 14:44:34;;;;;;;5.38;0.50;;;;;;;;;;4871990;29;20113;-88
2022/02/03 14:47:01;;;;;;;3.67;0.47;;;;;;;;;;4883325;29;20060;-89
2022/02/03 14:49:28;;;;;;;3.35;0.63;;;;;;;;;;4883172;29;20486;-85
2022/02/03 14:52:11;;;;;;;2.40;0.35;;;;;;;;;;4880541;29;20050;-83
2022/02/03 15:00:13;;;;;;;2.15;0.52;;;;;;;;;;4859722;29;20114;-82
2022/02/03 15:02:40;;;;;;;1.42;0.40;;;;;;;;;;4876044;29;20044;-82
2022/02/03 15:05:11;;;;;;;2.42;0.55;;;;;;;;;;4882238;29;20052;-87
2022/02/03 15:07:42;;;;;;;3.00;0.20;;;;;;;;;;4877978;29;20105;-89
2022/02/03 15:15:05;;;;;;;3.10;0.52;;;;;;;;;;4876656;29;20053;-90
2022/02/03 15:17:35;;;;;;;9.05;4.95;;;;;;;;;;4875588;29;20101;-89
2022/02/03 15:20:07;;;;;;;17.73;10.38;;;;;;;;;;4883237;29;20052;-89
2022/02/03 15:22:34;;;;;;;10.75;6.50;;;;;;;;;;4883875;29;20056;-89
2022/02/03 15:25:02;;;;;;;6.50;3.60;;;;;;;;;;4890357;29;20100;-83
2022/02/03 15:27:29;;;;;;;4.38;1.20;;;;;;;;;;4883702;29;20475;-89
2022/02/03 15:30:00;;;;;;;1.58;0.50;;;;;;;;;;4890428;29;20056;-89
2022/02/03 15:32:27;;;;;;;3.47;1.00;;;;;;;;;;4884803;29;20041;-90
2022/02/03 15:34:54;;;;;;;2.30;0.50;;;;;;;;;;4891335;29;20052;-88
2022/02/03 15:37:22;;;;;;;3.28;0.35;;;;;;;;;;4899501;29;20096;-89
2022/02/03 15:39:51;;;;;;;2.25;0.60;;;;;;;;;;4896628;29;20110;-90
2022/02/03 15:42:27;;;;;;;1.15;0.43;;;;;;;;;;4880595;29;20593;-91
2022/02/03 15:44:56;;;;;;;1.50;0.90;;;;;;;;;;4881843;29;20118;-89
2022/02/03 15:47:35;;;;;;;3.80;0.60;;;;;;;;;;4881136;29;20049;-89
2022/02/03 16:17:40;;;;;;;2.75;0.68;;;;;;;;;;4880408;29;20068;-91
2022/02/03 16:20:25;;;;;;;1.17;0.57;;;;;;;;;;4887910;29;20510;-90
2022/02/03 16:23:03;;;;;;;2.47;0.60;;;;;;;;;;4887332;29;20064;-88
2022/02/03 16:25:59;;;;;;;1.25;0.40;;;;;;;;;;4894283;29;20049;-88
2022/02/03 16:40:55;;;;;;;2.00;0.70;;;;;;;;;;4877964;29;20060;-89
2022/02/03 16:51:26;;;;;;;4.32;0.50;;;;;;;;;;4856352;29;20061;-91
2022/02/03 16:53:48;;;;;;;2.25;0.50;;;;;;;;;;4854120;29;20134;-88
2022/02/03 16:56:16;;;;;;;1.73;0.60;;;;;;;;;;4838789;29;20064;-88
2022/02/03 16:58:45;;;;;;;0.80;0.53;;;;;;;;;;4854087;29;20691;-87
2022/02/03 17:01:12;;;;;;;1.33;0.73;;;;;;;;;;4853774;29;20049;-88
2022/02/03 17:03:39;;;;;;;3.42;0.90;;;;;;;;;;4838513;29;20068;-87
2022/02/03 17:06:06;;;;;;;3.85;1.92;;;;;;;;;;4853959;29;20057;-87
2022/02/03 17:08:33;;;;;;;4.85;1.20;;;;;;;;;;4838146;29;20073;-88
2022/02/03 17:11:00;;;;;;;5.65;1.95;;;;;;;;;;4853689;29;20057;-88
2022/02/03 17:13:26;;;;;;;3.70;1.38;;;;;;;;;;4853293;29;20053;-87
2022/02/03 17:15:53;;;;;;;2.58;0.80;;;;;;;;;;4853996;29;20058;-87
2022/02/03 17:18:20;;;;;;;6.47;2.58;;;;;;;;;;4853158;29;20045;-87
2022/02/03 17:20:46;;;;;;;8.35;3.08;;;;;;;;;;4838242;29;20058;-88
2022/02/03 17:23:17;;;;;;;3.25;1.30;;;;;;;;;;4863431;29;20052;-86
2022/02/03 17:31:19;;;;;;;4.72;0.57;;;;;;;;;;4873745;29;20045;-86
2022/02/03 17:54:11;;;;;;;9.38;3.17;;;;;;;;;;4872948;29;20059;-85
2022/02/03 18:31:28;;;;;;;9.52;3.83;;;;;;;;;;4796479;29;20062;-86
2022/02/03 18:36:50;;;;;;;110.47;46.05;;;;;;;;;;4797586;29;20058;-85
2022/02/03 18:50:34;;;;;;;16.58;12.38;;;;;;;;;;4809933;29;20057;-85
2022/02/03 18:53:11;;;;;;;15.57;8.95;;;;;;;;;;4814788;29;20046;-85
2022/02/03 18:55:55;;;;;;;13.60;6.38;;;;;;;;;;4815356;29;20054;-84
2022/02/03 20:11:46;;;;;;;24.10;12.27;;;;;;;;;;4871912;29;20057;-85
2022/02/03 20:14:13;;;;;;;29.38;16.58;;;;;;;;;;4871248;29;20159;-85
2022/02/03 20:16:41;;;;;;;29.20;14.95;;;;;;;;;;4875692;29;20061;-86
2022/02/03 20:19:09;;;;;;;35.38;16.40;;;;;;;;;;4874651;29;20049;-86
2022/02/03 20:21:38;;;;;;;21.60;11.27;;;;;;;;;;4875489;29;20056;-86
2022/02/03 20:24:06;;;;;;;16.88;10.50;;;;;;;;;;4875145;29;20627;-86
2022/02/03 20:26:35;;;;;;;14.20;9.10;;;;;;;;;;4876123;29;20136;-86
2022/02/03 20:29:02;;;;;;;17.77;8.07;;;;;;;;;;4875179;29;20049;-86
2022/02/03 20:31:29;;;;;;;12.02;4.43;;;;;;;;;;4872101;29;20571;-86
2022/02/03 20:33:56;;;;;;;10.38;4.55;;;;;;;;;;4874878;29;20053;-86
2022/02/03 20:36:24;;;;;;;12.23;4.40;;;;;;;;;;4874676;29;20049;-87
2022/02/03 20:38:51;;;;;;;8.60;4.22;;;;;;;;;;4875444;29;20081;-87
2022/02/03 20:41:19;;;;;;;17.88;7.47;;;;;;;;;;4874745;29;20041;-86
2022/02/03 20:43:46;;;;;;;13.53;6.07;;;;;;;;;;4874921;29;20842;-86
2022/02/03 20:46:13;;;;;;;13.95;6.95;;;;;;;;;;4872729;29;20290;-87
2022/02/03 20:48:47;;;;;;;15.68;6.47;;;;;;;;;;4873896;29;20958;-85
2022/02/03 20:51:18;;;;;;;12.85;6.47;;;;;;;;;;4874952;29;20538;-86
2022/02/03 20:53:46;;;;;;;17.73;8.02;;;;;;;;;;4888875;29;20068;-85
2022/02/03 20:56:16;;;;;;;17.50;7.00;;;;;;;;;;4873132;29;20044;-86
2022/02/03 20:58:47;;;;;;;12.88;7.03;;;;;;;;;;4888357;29;20049;-86
2022/02/03 21:03:48;;;;;;;8.48;3.50;;;;;;;;;;4874454;29;20068;-84
2022/02/03 21:06:15;;;;;;;11.75;5.32;;;;;;;;;;4874088;29;20056;-85
2022/02/03 21:08:46;;;;;;;11.45;4.22;;;;;;;;;;4874575;29;20053;-86
2022/02/03 21:11:15;;;;;;;13.25;5.90;;;;;;;;;;4872833;29;20045;-87
2022/02/03 21:13:42;;;;;;;9.50;5.03;;;;;;;;;;4867782;29;20053;-86
2022/02/03 21:16:10;;;;;;;12.90;4.75;;;;;;;;;;4882168;29;20533;-85
2022/02/03 21:18:40;;;;;;;11.68;4.68;;;;;;;;;;4874584;29;20053;-86
2022/02/03 21:21:07;;;;;;;10.00;4.72;;;;;;;;;;4875086;29;20064;-86
2022/02/03 21:23:35;;;;;;;16.35;4.78;;;;;;;;;;4873157;29;20525;-85
2022/02/03 21:26:06;;;;;;;9.17;2.77;;;;;;;;;;4873197;29;20041;-88
2022/02/03 21:28:46;;;;;;;11.65;6.30;;;;;;;;;;4872673;29;20072;-86
2022/02/03 21:31:12;;;;;;;11.98;6.45;;;;;;;;;;4876769;29;20130;-86
2022/02/03 21:33:47;;;;;;;10.20;4.47;;;;;;;;;;4875792;29;20057;-86
2022/02/03 21:36:14;;;;;;;19.13;9.75;;;;;;;;;;4873146;29;20072;-87
2022/02/03 21:38:42;;;;;;;12.55;4.13;;;;;;;;;;4873572;29;20045;-87
2022/02/03 21:41:11;;;;;;;15.52;5.03;;;;;;;;;;4885911;29;20101;-87
2022/02/03 21:43:38;;;;;;;28.63;16.42;;;;;;;;;;4869945;29;20113;-87
2022/02/03 21:46:05;;;;;;;21.70;11.27;;;;;;;;;;4877463;29;20510;-85
2022/02/03 21:48:32;;;;;;;56.55;26.33;;;;;;;;;;4876787;29;20053;-87
2022/02/03 21:51:00;;;;;;;68.93;29.13;;;;;;;;;;4876651;29;20106;-86
2022/02/03 21:53:31;;;;;;;85.57;30.70;;;;;;;;;;4885245;29;20045;-86
2022/02/03 21:56:00;;;;;;;67.97;24.92;;;;;;;;;;4877578;29;20076;-86
2022/02/03 21:58:27;;;;;;;47.15;20.55;;;;;;;;;;4877182;29;20053;-86
2022/02/03 22:00:55;;;;;;;7.80;3.63;;;;;;;;;;4877385;29;20057;-87
2022/02/03 22:03:26;;;;;;;15.18;6.53;;;;;;;;;;4877637;29;20068;-87
2022/02/03 22:05:54;;;;;;;7.18;2.72;;;;;;;;;;4873886;29;20065;-87
2022/02/03 22:08:20;;;;;;;32.63;14.73;;;;;;;;;;4878606;29;20506;-87
2022/02/03 22:10:47;;;;;;;26.58;11.73;;;;;;;;;;4885329;29;20060;-88
2022/02/03 22:13:14;;;;;;;21.42;8.77;;;;;;;;;;4898291;29;20044;-87
2022/02/03 22:15:42;;;;;;;11.43;5.50;;;;;;;;;;4879470;29;20110;-88
2022/02/03 22:18:14;;;;;;;17.95;8.02;;;;;;;;;;4895115;29;20407;-89
2022/02/03 22:20:54;;;;;;;21.08;8.93;;;;;;;;;;4877465;29;20056;-86
2022/02/03 22:23:32;;;;;;;21.40;10.00;;;;;;;;;;4878390;29;20114;-86
2022/02/03 22:26:43;;;;;;;20.15;9.32;;;;;;;;;;4879113;29;20049;-86
2022/02/03 22:38:28;;;;;;;23.17;10.30;;;;;;;;;;4882162;29;20494;-85
2022/02/03 22:42:49;;;;;;;9.38;5.65;;;;;;;;;;4872672;29;20053;-86
2022/02/03 22:45:20;;;;;;;8.15;5.13;;;;;;;;;;4876062;29;20052;-85
2022/02/03 22:50:17;;;;;;;13.63;7.20;;;;;;;;;;4890337;29;20052;-86
2022/02/03 22:52:44;;;;;;;9.13;5.38;;;;;;;;;;4887369;29;20097;-86
2022/02/03 22:55:12;;;;;;;8.02;5.78;;;;;;;;;;4880019;29;20044;-85
2022/02/03 22:57:43;;;;;;;14.77;9.52;;;;;;;;;;4877609;29;20056;-85
